Birmingham, New Jersey
Current Conditions -  °F | °C
As of 9:03 AM on Saturday 25 Oct 2014 (Local Time) from KWRI Reporting Station
Haze Haze  
Wind Chill: 54°   Ceiling: Unl
Heat Index: 54°   Visibility: 1.2mi
Dew Point: 36°   Wind: 7mph
Humidity: 51%   Direction: 300°WNW
Pressure: 29.88"   Gusts: NA
Location:  39.98°N, 74.71°W
Report Text: KWRI 251303Z AUTO 30006KT 1 1/4SM HZ CLR 12/02 A2988 RMK AO2 $
Loading
Personal Weather Stations






























Interactive Weather Map
Tropical Storm Tracking
New forecast layout! Learn more

10-Day Weather Forecast

Advertisements
Track Severe Weather on mobile